Diaz, Argentina
Current Conditions -  °F | °C
As of 6:00 PM on Friday 24 Oct 2014 (Local Time) from SAAR Reporting Station
Clear Clear  
Wind Chill: 31°   Ceiling: Unl
Heat Index: 31°   Visibility: 6mi
Dew Point: 15°   Wind: 8mph
Humidity: 38%   Direction: 110°ESE
Pressure: 29.88"   Gusts: NA
Location:  32.37°S, 61.08°W
Report Text: SAAR 242100Z 11007KT CAVOK 31/15 Q1012
Loading
Personal Weather Stations






























Interactive Weather Map
Tropical Storm Tracking
New forecast layout! Learn more

10-Day Weather Forecast

Advertisements
Track Severe Weather on mobile